sensor_id;sensor_type;location;lat;lon;timestamp;temperature;humidity
45096;DHT22;30858;51.108;8.068;2022-07-03T00:01:10;15.00;99.90
45096;DHT22;30858;51.108;8.068;2022-07-03T00:03:35;15.00;99.90
45096;DHT22;30858;51.108;8.068;2022-07-03T00:06:01;14.90;99.90
45096;DHT22;30858;51.108;8.068;2022-07-03T00:08:26;14.90;99.90
45096;DHT22;30858;51.108;8.068;2022-07-03T00:10:52;14.90;99.90
45096;DHT22;30858;51.108;8.068;2022-07-03T00:13:18;14.90;99.90
45096;DHT22;30858;51.108;8.068;2022-07-03T00:15:43;14.90;99.90
45096;DHT22;30858;51.108;8.068;2022-07-03T00:18:09;15.00;99.90
45096;DHT22;30858;51.108;8.068;2022-07-03T00:20:40;15.00;99.90
45096;DHT22;30858;51.108;8.068;2022-07-03T00:23:10;15.00;99.90
45096;DHT22;30858;51.108;8.068;2022-07-03T00:25:40;14.80;99.90
45096;DHT22;30858;51.108;8.068;2022-07-03T00:28:07;14.70;99.90
45096;DHT22;30858;51.108;8.068;2022-07-03T00:30:34;14.70;99.90
45096;DHT22;30858;51.108;8.068;2022-07-03T00:33:02;14.80;99.90
45096;DHT22;30858;51.108;8.068;2022-07-03T00:35:28;14.80;99.90
45096;DHT22;30858;51.108;8.068;2022-07-03T00:37:55;14.80;99.90
45096;DHT22;30858;51.108;8.068;2022-07-03T00:40:21;14.70;99.90
45096;DHT22;30858;51.108;8.068;2022-07-03T00:42:49;14.80;99.90
45096;DHT22;30858;51.108;8.068;2022-07-03T00:45:19;14.80;99.90
45096;DHT22;30858;51.108;8.068;2022-07-03T00:47:45;14.90;99.90
45096;DHT22;30858;51.108;8.068;2022-07-03T00:50:11;14.70;99.90
45096;DHT22;30858;51.108;8.068;2022-07-03T00:52:37;14.70;99.90
45096;DHT22;30858;51.108;8.068;2022-07-03T00:55:07;14.60;99.90
45096;DHT22;30858;51.108;8.068;2022-07-03T00:57:33;14.60;99.90
45096;DHT22;30858;51.108;8.068;2022-07-03T01:00:00;14.60;99.90
45096;DHT22;30858;51.108;8.068;2022-07-03T01:05:32;14.60;99.90
45096;DHT22;30858;51.108;8.068;2022-07-03T01:08:08;14.60;99.90
45096;DHT22;30858;51.108;8.068;2022-07-03T01:10:59;14.60;99.90
45096;DHT22;30858;51.108;8.068;2022-07-03T01:16:41;14.70;99.90
45096;DHT22;30858;51.108;8.068;2022-07-03T01:19:38;14.80;99.90
45096;DHT22;30858;51.108;8.068;2022-07-03T01:22:28;14.90;99.90
45096;DHT22;30858;51.108;8.068;2022-07-03T01:25:17;14.90;99.90
45096;DHT22;30858;51.108;8.068;2022-07-03T01:30:19;14.50;99.90
45096;DHT22;30858;51.108;8.068;2022-07-03T01:32:46;14.50;99.90
45096;DHT22;30858;51.108;8.068;2022-07-03T01:35:22;14.40;99.90
45096;DHT22;30858;51.108;8.068;2022-07-03T01:37:48;14.30;99.90
45096;DHT22;30858;51.108;8.068;2022-07-03T01:40:17;14.30;99.90
45096;DHT22;30858;51.108;8.068;2022-07-03T01:42:44;14.30;99.90
45096;DHT22;30858;51.108;8.068;2022-07-03T01:45:12;14.20;99.90
45096;DHT22;30858;51.108;8.068;2022-07-03T01:47:41;14.10;99.90
45096;DHT22;30858;51.108;8.068;2022-07-03T01:50:11;14.00;99.90
45096;DHT22;30858;51.108;8.068;2022-07-03T01:52:38;14.00;99.90
45096;DHT22;30858;51.108;8.068;2022-07-03T01:55:05;14.00;99.90
45096;DHT22;30858;51.108;8.068;2022-07-03T01:57:37;14.00;99.90
45096;DHT22;30858;51.108;8.068;2022-07-03T02:00:07;14.10;99.90
45096;DHT22;30858;51.108;8.068;2022-07-03T02:02:33;14.20;99.90
45096;DHT22;30858;51.108;8.068;2022-07-03T02:05:06;14.10;99.90
45096;DHT22;30858;51.108;8.068;2022-07-03T02:10:03;14.10;99.90
45096;DHT22;30858;51.108;8.068;2022-07-03T02:12:42;14.10;99.90
45096;DHT22;30858;51.108;8.068;2022-07-03T02:15:10;13.90;99.90
45096;DHT22;30858;51.108;8.068;2022-07-03T02:17:39;13.70;99.90
45096;DHT22;30858;51.108;8.068;2022-07-03T02:20:08;13.70;99.90
45096;DHT22;30858;51.108;8.068;2022-07-03T02:22:42;13.70;99.90
45096;DHT22;30858;51.108;8.068;2022-07-03T02:25:36;13.80;99.90
45096;DHT22;30858;51.108;8.068;2022-07-03T02:28:39;13.80;99.90
45096;DHT22;30858;51.108;8.068;2022-07-03T02:31:08;13.80;99.90
45096;DHT22;30858;51.108;8.068;2022-07-03T02:33:38;13.90;99.90
45096;DHT22;30858;51.108;8.068;2022-07-03T02:36:10;13.70;99.90
45096;DHT22;30858;51.108;8.068;2022-07-03T02:38:36;13.70;99.90
45096;DHT22;30858;51.108;8.068;2022-07-03T02:41:21;13.70;99.90
45096;DHT22;30858;51.108;8.068;2022-07-03T02:44:29;13.60;99.90
45096;DHT22;30858;51.108;8.068;2022-07-03T02:47:14;13.40;99.90
45096;DHT22;30858;51.108;8.068;2022-07-03T02:50:07;13.30;99.90
45096;DHT22;30858;51.108;8.068;2022-07-03T02:52:46;13.20;99.90
45096;DHT22;30858;51.108;8.068;2022-07-03T03:00:35;12.90;99.90
45096;DHT22;30858;51.108;8.068;2022-07-03T03:03:02;12.90;99.90
45096;DHT22;30858;51.108;8.068;2022-07-03T03:05:35;12.90;99.90
45096;DHT22;30858;51.108;8.068;2022-07-03T03:10:28;12.90;99.90
45096;DHT22;30858;51.108;8.068;2022-07-03T03:13:13;12.90;99.90
45096;DHT22;30858;51.108;8.068;2022-07-03T03:16:04;12.90;99.90
45096;DHT22;30858;51.108;8.068;2022-07-03T03:18:30;12.80;99.90
45096;DHT22;30858;51.108;8.068;2022-07-03T03:20:59;12.70;99.90
45096;DHT22;30858;51.108;8.068;2022-07-03T03:23:49;12.70;99.90
45096;DHT22;30858;51.108;8.068;2022-07-03T03:26:21;12.70;99.90
45096;DHT22;30858;51.108;8.068;2022-07-03T03:28:47;12.70;99.90
45096;DHT22;30858;51.108;8.068;2022-07-03T03:31:13;12.60;99.90
45096;DHT22;30858;51.108;8.068;2022-07-03T03:33:40;12.50;99.90
45096;DHT22;30858;51.108;8.068;2022-07-03T03:36:12;12.50;99.90
45096;DHT22;30858;51.108;8.068;2022-07-03T03:38:39;12.50;99.90
45096;DHT22;30858;51.108;8.068;2022-07-03T03:41:05;12.50;99.90
45096;DHT22;30858;51.108;8.068;2022-07-03T03:43:32;12.50;99.90
45096;DHT22;30858;51.108;8.068;2022-07-03T03:45:59;12.50;99.90
45096;DHT22;30858;51.108;8.068;2022-07-03T03:48:26;12.40;99.90
45096;DHT22;30858;51.108;8.068;2022-07-03T03:50:53;12.40;99.90
45096;DHT22;30858;51.108;8.068;2022-07-03T03:53:19;12.40;99.90
45096;DHT22;30858;51.108;8.068;2022-07-03T03:56:14;12.30;99.90
45096;DHT22;30858;51.108;8.068;2022-07-03T03:58:43;12.30;99.90
45096;DHT22;30858;51.108;8.068;2022-07-03T04:01:10;12.30;99.90
45096;DHT22;30858;51.108;8.068;2022-07-03T04:03:36;12.30;99.90
45096;DHT22;30858;51.108;8.068;2022-07-03T04:06:02;12.30;99.90
45096;DHT22;30858;51.108;8.068;2022-07-03T04:08:29;12.40;99.90
45096;DHT22;30858;51.108;8.068;2022-07-03T04:10:55;12.40;99.90
45096;DHT22;30858;51.108;8.068;2022-07-03T04:13:21;12.40;99.90
45096;DHT22;30858;51.108;8.068;2022-07-03T04:15:47;12.30;99.90
45096;DHT22;30858;51.108;8.068;2022-07-03T04:18:14;12.40;99.90
45096;DHT22;30858;51.108;8.068;2022-07-03T04:20:39;12.40;99.90
45096;DHT22;30858;51.108;8.068;2022-07-03T04:23:05;12.40;99.90
45096;DHT22;30858;51.108;8.068;2022-07-03T04:25:31;12.40;99.90
45096;DHT22;30858;51.108;8.068;2022-07-03T04:27:57;12.40;99.90
45096;DHT22;30858;51.108;8.068;2022-07-03T04:30:23;12.50;99.90
45096;DHT22;30858;51.108;8.068;2022-07-03T04:32:49;12.60;99.90
45096;DHT22;30858;51.108;8.068;2022-07-03T04:35:15;12.60;99.90
45096;DHT22;30858;51.108;8.068;2022-07-03T04:37:42;12.60;99.90
45096;DHT22;30858;51.108;8.068;2022-07-03T04:40:08;12.60;99.90
45096;DHT22;30858;51.108;8.068;2022-07-03T04:42:34;12.70;99.90
45096;DHT22;30858;51.108;8.068;2022-07-03T04:45:00;12.80;99.90
45096;DHT22;30858;51.108;8.068;2022-07-03T04:47:26;12.90;99.90
45096;DHT22;30858;51.108;8.068;2022-07-03T04:49:51;12.90;99.90
45096;DHT22;30858;51.108;8.068;2022-07-03T04:52:17;13.00;99.90
45096;DHT22;30858;51.108;8.068;2022-07-03T04:54:43;13.00;99.90
45096;DHT22;30858;51.108;8.068;2022-07-03T04:57:09;13.00;99.90
45096;DHT22;30858;51.108;8.068;2022-07-03T04:59:34;13.10;99.90
45096;DHT22;30858;51.108;8.068;2022-07-03T05:02:00;13.20;99.90
45096;DHT22;30858;51.108;8.068;2022-07-03T05:04:25;13.20;99.90
45096;DHT22;30858;51.108;8.068;2022-07-03T05:06:51;13.30;99.90
45096;DHT22;30858;51.108;8.068;2022-07-03T05:09:16;13.40;99.90
45096;DHT22;30858;51.108;8.068;2022-07-03T05:11:44;13.50;99.90
45096;DHT22;30858;51.108;8.068;2022-07-03T05:14:09;13.60;99.90
45096;DHT22;30858;51.108;8.068;2022-07-03T05:16:35;13.70;99.90
45096;DHT22;30858;51.108;8.068;2022-07-03T05:19:00;13.80;99.90
45096;DHT22;30858;51.108;8.068;2022-07-03T05:21:26;14.00;99.90
45096;DHT22;30858;51.108;8.068;2022-07-03T05:23:52;14.10;99.90
45096;DHT22;30858;51.108;8.068;2022-07-03T05:26:18;14.30;99.90
45096;DHT22;30858;51.108;8.068;2022-07-03T05:28:43;14.40;99.90
45096;DHT22;30858;51.108;8.068;2022-07-03T05:31:09;14.50;99.90
45096;DHT22;30858;51.108;8.068;2022-07-03T05:33:35;14.60;99.90
45096;DHT22;30858;51.108;8.068;2022-07-03T05:36:00;14.80;99.90
45096;DHT22;30858;51.108;8.068;2022-07-03T05:38:26;15.00;99.90
45096;DHT22;30858;51.108;8.068;2022-07-03T05:41:11;15.10;99.90
45096;DHT22;30858;51.108;8.068;2022-07-03T05:43:37;15.40;99.90
45096;DHT22;30858;51.108;8.068;2022-07-03T05:46:03;15.50;99.90
45096;DHT22;30858;51.108;8.068;2022-07-03T05:48:30;15.70;99.90
45096;DHT22;30858;51.108;8.068;2022-07-03T05:50:56;15.80;99.90
45096;DHT22;30858;51.108;8.068;2022-07-03T05:58:14;16.30;99.90
45096;DHT22;30858;51.108;8.068;2022-07-03T06:00:40;16.50;99.90
45096;DHT22;30858;51.108;8.068;2022-07-03T06:03:05;16.60;99.90
45096;DHT22;30858;51.108;8.068;2022-07-03T06:05:31;16.90;99.90
45096;DHT22;30858;51.108;8.068;2022-07-03T06:07:58;17.00;99.90
45096;DHT22;30858;51.108;8.068;2022-07-03T06:10:24;17.20;99.90
45096;DHT22;30858;51.108;8.068;2022-07-03T06:12:50;17.30;99.90
45096;DHT22;30858;51.108;8.068;2022-07-03T06:15:16;17.50;99.90
45096;DHT22;30858;51.108;8.068;2022-07-03T06:17:41;17.70;99.90
45096;DHT22;30858;51.108;8.068;2022-07-03T06:20:07;18.00;99.90
45096;DHT22;30858;51.108;8.068;2022-07-03T06:22:33;18.20;99.90
45096;DHT22;30858;51.108;8.068;2022-07-03T06:24:59;18.20;99.90
45096;DHT22;30858;51.108;8.068;2022-07-03T06:27:25;18.40;99.90
45096;DHT22;30858;51.108;8.068;2022-07-03T06:29:51;18.50;99.90
45096;DHT22;30858;51.108;8.068;2022-07-03T06:32:17;18.70;99.90
45096;DHT22;30858;51.108;8.068;2022-07-03T06:34:42;18.90;99.90
45096;DHT22;30858;51.108;8.068;2022-07-03T06:37:09;19.00;99.90
45096;DHT22;30858;51.108;8.068;2022-07-03T06:39:35;19.20;99.90
45096;DHT22;30858;51.108;8.068;2022-07-03T06:42:00;19.40;99.90
45096;DHT22;30858;51.108;8.068;2022-07-03T06:44:26;19.70;99.90
45096;DHT22;30858;51.108;8.068;2022-07-03T06:46:53;20.00;99.90
45096;DHT22;30858;51.108;8.068;2022-07-03T06:49:19;20.40;99.90
45096;DHT22;30858;51.108;8.068;2022-07-03T06:51:44;20.80;99.90
45096;DHT22;30858;51.108;8.068;2022-07-03T06:54:10;20.80;99.90
45096;DHT22;30858;51.108;8.068;2022-07-03T06:56:35;21.00;99.90
45096;DHT22;30858;51.108;8.068;2022-07-03T06:59:01;21.00;99.90
45096;DHT22;30858;51.108;8.068;2022-07-03T07:01:27;21.30;99.90
45096;DHT22;30858;51.108;8.068;2022-07-03T07:03:52;21.30;99.90
45096;DHT22;30858;51.108;8.068;2022-07-03T07:06:18;21.30;99.90
45096;DHT22;30858;51.108;8.068;2022-07-03T07:08:43;21.40;99.90
45096;DHT22;30858;51.108;8.068;2022-07-03T07:11:09;21.50;99.90
45096;DHT22;30858;51.108;8.068;2022-07-03T07:13:35;21.60;99.90
45096;DHT22;30858;51.108;8.068;2022-07-03T07:16:00;21.80;99.90
45096;DHT22;30858;51.108;8.068;2022-07-03T07:18:26;22.00;99.90
45096;DHT22;30858;51.108;8.068;2022-07-03T07:20:52;22.20;99.90
45096;DHT22;30858;51.108;8.068;2022-07-03T07:23:17;22.40;99.90
45096;DHT22;30858;51.108;8.068;2022-07-03T07:25:43;22.60;99.90
45096;DHT22;30858;51.108;8.068;2022-07-03T07:28:08;22.70;99.90
45096;DHT22;30858;51.108;8.068;2022-07-03T07:30:34;22.90;99.90
45096;DHT22;30858;51.108;8.068;2022-07-03T07:32:59;23.30;99.90
45096;DHT22;30858;51.108;8.068;2022-07-03T07:35:25;23.40;99.90
45096;DHT22;30858;51.108;8.068;2022-07-03T07:37:51;23.50;99.90
45096;DHT22;30858;51.108;8.068;2022-07-03T07:40:16;23.80;99.90
45096;DHT22;30858;51.108;8.068;2022-07-03T07:42:42;24.00;99.90
45096;DHT22;30858;51.108;8.068;2022-07-03T07:45:09;24.20;99.90
45096;DHT22;30858;51.108;8.068;2022-07-03T07:47:35;24.50;99.90
45096;DHT22;30858;51.108;8.068;2022-07-03T07:50:00;24.70;99.90
45096;DHT22;30858;51.108;8.068;2022-07-03T07:52:26;24.70;99.90
45096;DHT22;30858;51.108;8.068;2022-07-03T07:54:52;24.90;99.90
45096;DHT22;30858;51.108;8.068;2022-07-03T07:57:17;25.00;99.90
45096;DHT22;30858;51.108;8.068;2022-07-03T07:59:43;25.00;99.90
45096;DHT22;30858;51.108;8.068;2022-07-03T08:02:08;25.20;99.90
45096;DHT22;30858;51.108;8.068;2022-07-03T08:04:52;25.40;99.90
45096;DHT22;30858;51.108;8.068;2022-07-03T08:07:36;25.60;99.90
45096;DHT22;30858;51.108;8.068;2022-07-03T08:10:03;25.80;99.90
45096;DHT22;30858;51.108;8.068;2022-07-03T08:12:29;26.10;99.90
45096;DHT22;30858;51.108;8.068;2022-07-03T08:14:55;26.10;99.90
45096;DHT22;30858;51.108;8.068;2022-07-03T08:17:21;26.00;99.90
45096;DHT22;30858;51.108;8.068;2022-07-03T08:19:46;26.00;99.90
45096;DHT22;30858;51.108;8.068;2022-07-03T08:22:12;26.30;99.90
45096;DHT22;30858;51.108;8.068;2022-07-03T08:24:37;26.30;99.90
45096;DHT22;30858;51.108;8.068;2022-07-03T08:27:04;26.10;99.90
45096;DHT22;30858;51.108;8.068;2022-07-03T08:29:30;26.30;99.90
45096;DHT22;30858;51.108;8.068;2022-07-03T08:31:56;26.30;99.90
45096;DHT22;30858;51.108;8.068;2022-07-03T08:34:22;26.40;99.90
45096;DHT22;30858;51.108;8.068;2022-07-03T08:36:48;26.40;99.90
45096;DHT22;30858;51.108;8.068;2022-07-03T08:39:13;26.70;99.90
45096;DHT22;30858;51.108;8.068;2022-07-03T08:41:40;27.00;99.90
45096;DHT22;30858;51.108;8.068;2022-07-03T08:44:11;27.20;99.90
45096;DHT22;30858;51.108;8.068;2022-07-03T08:46:39;26.70;99.90
45096;DHT22;30858;51.108;8.068;2022-07-03T08:49:06;27.00;99.90
45096;DHT22;30858;51.108;8.068;2022-07-03T08:51:32;27.20;99.90
45096;DHT22;30858;51.108;8.068;2022-07-03T08:54:00;27.30;99.90
45096;DHT22;30858;51.108;8.068;2022-07-03T08:56:27;27.40;99.90
45096;DHT22;30858;51.108;8.068;2022-07-03T08:58:53;27.80;99.90
45096;DHT22;30858;51.108;8.068;2022-07-03T09:01:19;27.90;99.90
45096;DHT22;30858;51.108;8.068;2022-07-03T09:03:45;27.80;99.90
45096;DHT22;30858;51.108;8.068;2022-07-03T09:06:13;28.20;98.70
45096;DHT22;30858;51.108;8.068;2022-07-03T09:08:38;28.40;98.00
45096;DHT22;30858;51.108;8.068;2022-07-03T09:11:05;28.60;97.60
45096;DHT22;30858;51.108;8.068;2022-07-03T09:13:31;28.90;97.20
45096;DHT22;30858;51.108;8.068;2022-07-03T09:15:56;29.00;97.20
45096;DHT22;30858;51.108;8.068;2022-07-03T09:18:39;28.80;96.60
45096;DHT22;30858;51.108;8.068;2022-07-03T09:21:05;28.50;96.40
45096;DHT22;30858;51.108;8.068;2022-07-03T09:23:44;27.30;96.90
45096;DHT22;30858;51.108;8.068;2022-07-03T09:26:16;28.10;99.50
45096;DHT22;30858;51.108;8.068;2022-07-03T09:28:53;28.60;97.80
45096;DHT22;30858;51.108;8.068;2022-07-03T09:31:25;29.00;96.20
45096;DHT22;30858;51.108;8.068;2022-07-03T09:34:00;27.80;97.30
45096;DHT22;30858;51.108;8.068;2022-07-03T09:36:46;27.20;96.90
45096;DHT22;30858;51.108;8.068;2022-07-03T09:39:23;26.70;97.80
45096;DHT22;30858;51.108;8.068;2022-07-03T09:41:56;27.10;98.20
45096;DHT22;30858;51.108;8.068;2022-07-03T09:44:40;27.40;97.40
45096;DHT22;30858;51.108;8.068;2022-07-03T09:47:17;27.60;97.80
45096;DHT22;30858;51.108;8.068;2022-07-03T09:49:53;28.30;96.80
45096;DHT22;30858;51.108;8.068;2022-07-03T09:52:44;28.60;96.50
45096;DHT22;30858;51.108;8.068;2022-07-03T10:00:29;28.80;92.60
45096;DHT22;30858;51.108;8.068;2022-07-03T10:05:35;29.10;92.20
45096;DHT22;30858;51.108;8.068;2022-07-03T10:08:06;29.00;91.70
45096;DHT22;30858;51.108;8.068;2022-07-03T10:10:37;28.60;90.60
45096;DHT22;30858;51.108;8.068;2022-07-03T10:13:04;28.30;91.10
45096;DHT22;30858;51.108;8.068;2022-07-03T10:15:32;28.20;90.70
45096;DHT22;30858;51.108;8.068;2022-07-03T10:17:58;28.20;91.50
45096;DHT22;30858;51.108;8.068;2022-07-03T10:23:09;27.30;91.90
45096;DHT22;30858;51.108;8.068;2022-07-03T10:25:35;27.00;93.10
45096;DHT22;30858;51.108;8.068;2022-07-03T10:28:01;27.60;92.70
45096;DHT22;30858;51.108;8.068;2022-07-03T10:30:27;27.70;91.10
45096;DHT22;30858;51.108;8.068;2022-07-03T10:32:55;27.90;91.50
45096;DHT22;30858;51.108;8.068;2022-07-03T10:43:15;28.70;90.10
45096;DHT22;30858;51.108;8.068;2022-07-03T10:46:14;28.90;91.10
45096;DHT22;30858;51.108;8.068;2022-07-03T10:49:04;29.30;90.80
45096;DHT22;30858;51.108;8.068;2022-07-03T11:07:26;29.00;82.20
45096;DHT22;30858;51.108;8.068;2022-07-03T11:13:02;29.50;80.50
45096;DHT22;30858;51.108;8.068;2022-07-03T11:18:24;28.80;81.40
45096;DHT22;30858;51.108;8.068;2022-07-03T11:23:28;28.90;81.50
45096;DHT22;30858;51.108;8.068;2022-07-03T11:25:59;29.00;84.50
45096;DHT22;30858;51.108;8.068;2022-07-03T11:38:43;29.90;80.40
45096;DHT22;30858;51.108;8.068;2022-07-03T11:41:10;30.30;72.60
45096;DHT22;30858;51.108;8.068;2022-07-03T11:43:37;29.80;77.10
45096;DHT22;30858;51.108;8.068;2022-07-03T11:46:04;29.60;74.30
45096;DHT22;30858;51.108;8.068;2022-07-03T11:48:30;29.60;74.70
45096;DHT22;30858;51.108;8.068;2022-07-03T11:51:03;29.50;75.60
45096;DHT22;30858;51.108;8.068;2022-07-03T11:53:37;29.80;76.50
45096;DHT22;30858;51.108;8.068;2022-07-03T11:56:09;29.50;76.00
45096;DHT22;30858;51.108;8.068;2022-07-03T12:04:10;29.90;72.20
45096;DHT22;30858;51.108;8.068;2022-07-03T12:06:46;30.00;70.70
45096;DHT22;30858;51.108;8.068;2022-07-03T12:14:36;30.40;74.40
45096;DHT22;30858;51.108;8.068;2022-07-03T12:17:03;31.00;72.50
45096;DHT22;30858;51.108;8.068;2022-07-03T12:19:29;30.00;71.10
45096;DHT22;30858;51.108;8.068;2022-07-03T12:21:54;29.60;71.40
45096;DHT22;30858;51.108;8.068;2022-07-03T12:24:20;29.60;72.60
45096;DHT22;30858;51.108;8.068;2022-07-03T12:29:15;29.80;71.80
45096;DHT22;30858;51.108;8.068;2022-07-03T12:31:41;30.10;70.80
45096;DHT22;30858;51.108;8.068;2022-07-03T12:34:07;30.10;71.10
45096;DHT22;30858;51.108;8.068;2022-07-03T12:36:33;29.70;74.30
45096;DHT22;30858;51.108;8.068;2022-07-03T12:38:59;30.20;70.10
45096;DHT22;30858;51.108;8.068;2022-07-03T12:41:27;30.20;72.70
45096;DHT22;30858;51.108;8.068;2022-07-03T12:43:54;30.90;71.80
45096;DHT22;30858;51.108;8.068;2022-07-03T12:48:56;31.20;70.50
45096;DHT22;30858;51.108;8.068;2022-07-03T12:51:45;31.50;71.00
45096;DHT22;30858;51.108;8.068;2022-07-03T12:57:08;31.90;70.70
45096;DHT22;30858;51.108;8.068;2022-07-03T13:02:39;31.00;68.00
45096;DHT22;30858;51.108;8.068;2022-07-03T13:05:17;29.90;69.00
45096;DHT22;30858;51.108;8.068;2022-07-03T13:07:45;29.80;71.00
45096;DHT22;30858;51.108;8.068;2022-07-03T13:10:11;29.70;71.10
45096;DHT22;30858;51.108;8.068;2022-07-03T13:12:54;30.10;74.50
45096;DHT22;30858;51.108;8.068;2022-07-03T13:15:20;30.40;70.10
45096;DHT22;30858;51.108;8.068;2022-07-03T13:22:58;30.10;67.80
45096;DHT22;30858;51.108;8.068;2022-07-03T13:25:24;30.10;68.60
45096;DHT22;30858;51.108;8.068;2022-07-03T13:27:49;30.20;69.90
45096;DHT22;30858;51.108;8.068;2022-07-03T13:30:17;30.10;71.30
45096;DHT22;30858;51.108;8.068;2022-07-03T13:32:43;29.80;70.00
45096;DHT22;30858;51.108;8.068;2022-07-03T13:35:09;29.50;71.20
45096;DHT22;30858;51.108;8.068;2022-07-03T13:37:35;29.90;71.60
45096;DHT22;30858;51.108;8.068;2022-07-03T13:40:02;30.20;71.50
45096;DHT22;30858;51.108;8.068;2022-07-03T13:42:28;30.40;72.30
45096;DHT22;30858;51.108;8.068;2022-07-03T13:44:54;30.60;69.50
45096;DHT22;30858;51.108;8.068;2022-07-03T13:47:20;30.10;70.90
45096;DHT22;30858;51.108;8.068;2022-07-03T13:49:45;30.70;70.10
45096;DHT22;30858;51.108;8.068;2022-07-03T13:52:11;30.50;71.00
45096;DHT22;30858;51.108;8.068;2022-07-03T13:54:36;30.00;70.90
45096;DHT22;30858;51.108;8.068;2022-07-03T13:57:03;29.90;72.60
45096;DHT22;30858;51.108;8.068;2022-07-03T13:59:28;29.70;72.80
45096;DHT22;30858;51.108;8.068;2022-07-03T14:01:56;29.00;71.80
45096;DHT22;30858;51.108;8.068;2022-07-03T14:04:22;29.00;71.30
45096;DHT22;30858;51.108;8.068;2022-07-03T14:06:47;29.10;72.10
45096;DHT22;30858;51.108;8.068;2022-07-03T14:09:13;28.90;71.30
45096;DHT22;30858;51.108;8.068;2022-07-03T14:11:38;28.90;72.60
45096;DHT22;30858;51.108;8.068;2022-07-03T14:14:04;28.80;72.50
45096;DHT22;30858;51.108;8.068;2022-07-03T14:16:29;28.80;73.10
45096;DHT22;30858;51.108;8.068;2022-07-03T14:18:55;28.60;75.90
45096;DHT22;30858;51.108;8.068;2022-07-03T14:21:20;28.60;75.20
45096;DHT22;30858;51.108;8.068;2022-07-03T14:23:46;28.60;75.40
45096;DHT22;30858;51.108;8.068;2022-07-03T14:26:11;28.90;76.30
45096;DHT22;30858;51.108;8.068;2022-07-03T14:28:37;29.00;74.10
45096;DHT22;30858;51.108;8.068;2022-07-03T14:31:21;28.50;76.50
45096;DHT22;30858;51.108;8.068;2022-07-03T14:33:52;29.00;76.50
45096;DHT22;30858;51.108;8.068;2022-07-03T14:38:44;29.60;72.30
45096;DHT22;30858;51.108;8.068;2022-07-03T14:41:10;29.00;74.10
45096;DHT22;30858;51.108;8.068;2022-07-03T14:43:35;28.60;75.40
45096;DHT22;30858;51.108;8.068;2022-07-03T14:46:01;28.20;76.80
45096;DHT22;30858;51.108;8.068;2022-07-03T14:48:26;27.80;77.20
45096;DHT22;30858;51.108;8.068;2022-07-03T14:50:52;27.80;78.10
45096;DHT22;30858;51.108;8.068;2022-07-03T14:53:21;28.10;76.70
45096;DHT22;30858;51.108;8.068;2022-07-03T14:55:49;28.40;78.00
45096;DHT22;30858;51.108;8.068;2022-07-03T14:58:19;28.80;79.30
45096;DHT22;30858;51.108;8.068;2022-07-03T15:00:49;29.00;76.70
45096;DHT22;30858;51.108;8.068;2022-07-03T15:03:16;29.10;77.70
45096;DHT22;30858;51.108;8.068;2022-07-03T15:05:42;29.20;77.30
45096;DHT22;30858;51.108;8.068;2022-07-03T15:11:06;30.10;77.30
45096;DHT22;30858;51.108;8.068;2022-07-03T15:13:33;30.00;77.40
45096;DHT22;30858;51.108;8.068;2022-07-03T15:16:00;30.10;77.00
45096;DHT22;30858;51.108;8.068;2022-07-03T15:18:28;30.00;75.20
45096;DHT22;30858;51.108;8.068;2022-07-03T15:20:53;29.70;77.30
45096;DHT22;30858;51.108;8.068;2022-07-03T15:23:19;30.40;78.30
45096;DHT22;30858;51.108;8.068;2022-07-03T15:25:46;30.60;75.90
45096;DHT22;30858;51.108;8.068;2022-07-03T15:28:14;30.20;76.20
45096;DHT22;30858;51.108;8.068;2022-07-03T15:30:52;29.50;78.30
45096;DHT22;30858;51.108;8.068;2022-07-03T15:33:18;28.90;77.90
45096;DHT22;30858;51.108;8.068;2022-07-03T15:35:53;28.80;78.30
45096;DHT22;30858;51.108;8.068;2022-07-03T15:38:35;28.30;78.30
45096;DHT22;30858;51.108;8.068;2022-07-03T15:41:04;27.80;79.20
45096;DHT22;30858;51.108;8.068;2022-07-03T15:51:43;28.40;81.40
45096;DHT22;30858;51.108;8.068;2022-07-03T15:54:19;28.10;80.30
45096;DHT22;30858;51.108;8.068;2022-07-03T15:56:53;28.00;81.20
45096;DHT22;30858;51.108;8.068;2022-07-03T15:59:21;27.90;80.70
45096;DHT22;30858;51.108;8.068;2022-07-03T16:01:53;27.90;81.00
45096;DHT22;30858;51.108;8.068;2022-07-03T16:07:25;27.00;82.80
45096;DHT22;30858;51.108;8.068;2022-07-03T16:09:52;26.90;83.90
45096;DHT22;30858;51.108;8.068;2022-07-03T16:12:18;27.30;83.30
45096;DHT22;30858;51.108;8.068;2022-07-03T16:14:48;27.50;83.50
45096;DHT22;30858;51.108;8.068;2022-07-03T16:17:16;27.50;83.90
45096;DHT22;30858;51.108;8.068;2022-07-03T16:19:45;27.60;83.50
45096;DHT22;30858;51.108;8.068;2022-07-03T16:22:11;27.50;83.00
45096;DHT22;30858;51.108;8.068;2022-07-03T16:24:38;27.70;83.70
45096;DHT22;30858;51.108;8.068;2022-07-03T16:27:04;27.90;83.90
45096;DHT22;30858;51.108;8.068;2022-07-03T16:29:29;28.30;84.40
45096;DHT22;30858;51.108;8.068;2022-07-03T16:31:55;28.20;83.90
45096;DHT22;30858;51.108;8.068;2022-07-03T16:34:37;28.20;83.10
45096;DHT22;30858;51.108;8.068;2022-07-03T16:37:07;27.90;85.20
45096;DHT22;30858;51.108;8.068;2022-07-03T16:39:36;27.80;84.50
45096;DHT22;30858;51.108;8.068;2022-07-03T16:42:04;27.50;84.90
45096;DHT22;30858;51.108;8.068;2022-07-03T16:44:32;27.50;86.00
45096;DHT22;30858;51.108;8.068;2022-07-03T16:47:03;27.60;86.20
45096;DHT22;30858;51.108;8.068;2022-07-03T16:49:33;27.40;86.20
45096;DHT22;30858;51.108;8.068;2022-07-03T16:52:09;26.90;87.30
45096;DHT22;30858;51.108;8.068;2022-07-03T16:54:35;27.00;87.80
45096;DHT22;30858;51.108;8.068;2022-07-03T16:57:04;26.80;87.70
45096;DHT22;30858;51.108;8.068;2022-07-03T16:59:30;26.70;87.70
45096;DHT22;30858;51.108;8.068;2022-07-03T17:01:57;26.60;87.70
45096;DHT22;30858;51.108;8.068;2022-07-03T17:04:26;26.60;88.10
45096;DHT22;30858;51.108;8.068;2022-07-03T17:06:53;26.50;89.30
45096;DHT22;30858;51.108;8.068;2022-07-03T17:09:20;26.10;89.40
45096;DHT22;30858;51.108;8.068;2022-07-03T17:11:47;26.30;90.30
45096;DHT22;30858;51.108;8.068;2022-07-03T17:14:13;26.00;90.20
45096;DHT22;30858;51.108;8.068;2022-07-03T17:16:46;26.40;89.70
45096;DHT22;30858;51.108;8.068;2022-07-03T17:19:21;26.00;90.40
45096;DHT22;30858;51.108;8.068;2022-07-03T17:21:48;26.20;90.50
45096;DHT22;30858;51.108;8.068;2022-07-03T17:24:17;26.10;90.80
45096;DHT22;30858;51.108;8.068;2022-07-03T17:26:47;26.10;90.70
45096;DHT22;30858;51.108;8.068;2022-07-03T17:29:18;26.30;90.50
45096;DHT22;30858;51.108;8.068;2022-07-03T17:31:45;26.20;91.20
45096;DHT22;30858;51.108;8.068;2022-07-03T17:34:14;25.80;91.30
45096;DHT22;30858;51.108;8.068;2022-07-03T17:36:42;25.90;90.80
45096;DHT22;30858;51.108;8.068;2022-07-03T17:39:13;25.90;90.80
45096;DHT22;30858;51.108;8.068;2022-07-03T17:41:39;25.50;92.00